sensor_id;sensor_type;location;lat;lon;timestamp;pressure;altitude;pressure_sealevel;temperature
18219;BMP180;9234;49.344;11.120;2023-08-07T00:00:12;96853.00;;;13.30
18219;BMP180;9234;49.344;11.120;2023-08-07T00:02:41;96847.00;;;13.30
18219;BMP180;9234;49.344;11.120;2023-08-07T00:05:11;96855.00;;;13.30
18219;BMP180;9234;49.344;11.120;2023-08-07T00:07:40;96843.00;;;13.30
18219;BMP180;9234;49.344;11.120;2023-08-07T00:10:09;96859.00;;;13.30
18219;BMP180;9234;49.344;11.120;2023-08-07T00:12:38;96856.00;;;13.30
18219;BMP180;9234;49.344;11.120;2023-08-07T00:15:07;96855.00;;;13.30
18219;BMP180;9234;49.344;11.120;2023-08-07T00:17:36;96860.00;;;13.20
18219;BMP180;9234;49.344;11.120;2023-08-07T00:20:07;96864.00;;;13.20
18219;BMP180;9234;49.344;11.120;2023-08-07T00:22:37;96861.00;;;13.30
18219;BMP180;9234;49.344;11.120;2023-08-07T00:25:06;96867.00;;;13.20
18219;BMP180;9234;49.344;11.120;2023-08-07T00:27:35;96855.00;;;13.20
18219;BMP180;9234;49.344;11.120;2023-08-07T00:30:04;96860.00;;;13.20
18219;BMP180;9234;49.344;11.120;2023-08-07T00:32:32;96862.00;;;13.20
18219;BMP180;9234;49.344;11.120;2023-08-07T00:35:01;96870.00;;;13.20
18219;BMP180;9234;49.344;11.120;2023-08-07T00:37:30;96867.00;;;13.20
18219;BMP180;9234;49.344;11.120;2023-08-07T00:40:03;96862.00;;;13.20
18219;BMP180;9234;49.344;11.120;2023-08-07T00:42:31;96865.00;;;13.20
18219;BMP180;9234;49.344;11.120;2023-08-07T00:45:00;96858.00;;;13.20
18219;BMP180;9234;49.344;11.120;2023-08-07T00:47:29;96865.00;;;13.20
18219;BMP180;9234;49.344;11.120;2023-08-07T00:49:58;96852.00;;;13.10
18219;BMP180;9234;49.344;11.120;2023-08-07T00:52:27;96881.00;;;13.10
18219;BMP180;9234;49.344;11.120;2023-08-07T00:54:55;96878.00;;;13.10
18219;BMP180;9234;49.344;11.120;2023-08-07T00:57:26;96888.00;;;13.10
18219;BMP180;9234;49.344;11.120;2023-08-07T00:59:55;96884.00;;;13.10
18219;BMP180;9234;49.344;11.120;2023-08-07T01:02:24;96884.00;;;13.10
18219;BMP180;9234;49.344;11.120;2023-08-07T01:04:53;96876.00;;;13.10
18219;BMP180;9234;49.344;11.120;2023-08-07T01:07:23;96886.00;;;13.10
18219;BMP180;9234;49.344;11.120;2023-08-07T01:09:51;96878.00;;;13.10
18219;BMP180;9234;49.344;11.120;2023-08-07T01:12:30;96874.00;;;13.10
18219;BMP180;9234;49.344;11.120;2023-08-07T01:15:09;96884.00;;;13.10
18219;BMP180;9234;49.344;11.120;2023-08-07T01:17:43;96889.00;;;13.10
18219;BMP180;9234;49.344;11.120;2023-08-07T01:20:13;96872.00;;;13.00
18219;BMP180;9234;49.344;11.120;2023-08-07T01:22:44;96886.00;;;13.00
18219;BMP180;9234;49.344;11.120;2023-08-07T01:25:12;96876.00;;;13.00
18219;BMP180;9234;49.344;11.120;2023-08-07T01:27:53;96887.00;;;13.00
18219;BMP180;9234;49.344;11.120;2023-08-07T01:30:31;96893.00;;;13.00
18219;BMP180;9234;49.344;11.120;2023-08-07T01:33:15;96900.00;;;12.90
18219;BMP180;9234;49.344;11.120;2023-08-07T01:35:51;96905.00;;;13.00
18219;BMP180;9234;49.344;11.120;2023-08-07T01:38:25;96903.00;;;13.00
18219;BMP180;9234;49.344;11.120;2023-08-07T01:40:55;96899.00;;;12.90
18219;BMP180;9234;49.344;11.120;2023-08-07T01:43:25;96906.00;;;12.90
18219;BMP180;9234;49.344;11.120;2023-08-07T01:45:53;96897.00;;;12.90
18219;BMP180;9234;49.344;11.120;2023-08-07T01:48:22;96913.00;;;12.90
18219;BMP180;9234;49.344;11.120;2023-08-07T01:50:53;96883.00;;;12.90
18219;BMP180;9234;49.344;11.120;2023-08-07T01:53:25;96912.00;;;12.90
18219;BMP180;9234;49.344;11.120;2023-08-07T01:55:54;96907.00;;;12.90
18219;BMP180;9234;49.344;11.120;2023-08-07T01:58:22;96916.00;;;12.90
18219;BMP180;9234;49.344;11.120;2023-08-07T02:00:51;96909.00;;;12.90
18219;BMP180;9234;49.344;11.120;2023-08-07T02:03:20;96931.00;;;12.90
18219;BMP180;9234;49.344;11.120;2023-08-07T02:05:49;96926.00;;;12.90
18219;BMP180;9234;49.344;11.120;2023-08-07T02:08:17;96916.00;;;12.90
18219;BMP180;9234;49.344;11.120;2023-08-07T02:10:47;96918.00;;;12.90
18219;BMP180;9234;49.344;11.120;2023-08-07T02:13:19;96920.00;;;12.90
18219;BMP180;9234;49.344;11.120;2023-08-07T02:15:48;96917.00;;;12.90
18219;BMP180;9234;49.344;11.120;2023-08-07T02:18:16;96936.00;;;12.90
18219;BMP180;9234;49.344;11.120;2023-08-07T02:20:45;96931.00;;;12.90
18219;BMP180;9234;49.344;11.120;2023-08-07T02:23:14;96934.00;;;12.90
18219;BMP180;9234;49.344;11.120;2023-08-07T02:25:42;96942.00;;;12.90
18219;BMP180;9234;49.344;11.120;2023-08-07T02:28:15;96931.00;;;12.90
18219;BMP180;9234;49.344;11.120;2023-08-07T02:30:45;96946.00;;;12.90
18219;BMP180;9234;49.344;11.120;2023-08-07T02:33:15;96943.00;;;12.90
18219;BMP180;9234;49.344;11.120;2023-08-07T02:35:44;96961.00;;;12.80
18219;BMP180;9234;49.344;11.120;2023-08-07T02:38:12;96941.00;;;12.80
18219;BMP180;9234;49.344;11.120;2023-08-07T02:40:40;96953.00;;;12.80
18219;BMP180;9234;49.344;11.120;2023-08-07T02:43:09;96951.00;;;12.80
18219;BMP180;9234;49.344;11.120;2023-08-07T02:45:40;96973.00;;;12.70
18219;BMP180;9234;49.344;11.120;2023-08-07T02:48:09;96963.00;;;12.80
18219;BMP180;9234;49.344;11.120;2023-08-07T02:50:37;96955.00;;;12.80
18219;BMP180;9234;49.344;11.120;2023-08-07T02:53:05;96964.00;;;12.80
18219;BMP180;9234;49.344;11.120;2023-08-07T02:55:34;96960.00;;;12.80
18219;BMP180;9234;49.344;11.120;2023-08-07T02:58:02;96970.00;;;12.80
18219;BMP180;9234;49.344;11.120;2023-08-07T03:00:30;96975.00;;;12.80
18219;BMP180;9234;49.344;11.120;2023-08-07T03:03:00;96973.00;;;12.80
18219;BMP180;9234;49.344;11.120;2023-08-07T03:05:29;96982.00;;;12.70
18219;BMP180;9234;49.344;11.120;2023-08-07T03:07:57;96979.00;;;12.80
18219;BMP180;9234;49.344;11.120;2023-08-07T03:10:26;96978.00;;;12.80
18219;BMP180;9234;49.344;11.120;2023-08-07T03:12:54;96998.00;;;12.80
18219;BMP180;9234;49.344;11.120;2023-08-07T03:15:23;96983.00;;;12.70
18219;BMP180;9234;49.344;11.120;2023-08-07T03:17:51;96983.00;;;12.70
18219;BMP180;9234;49.344;11.120;2023-08-07T03:20:22;96988.00;;;12.70
18219;BMP180;9234;49.344;11.120;2023-08-07T03:22:51;97002.00;;;12.70
18219;BMP180;9234;49.344;11.120;2023-08-07T03:25:19;97008.00;;;12.70
18219;BMP180;9234;49.344;11.120;2023-08-07T03:27:48;96992.00;;;12.70
18219;BMP180;9234;49.344;11.120;2023-08-07T03:30:17;96996.00;;;12.70
18219;BMP180;9234;49.344;11.120;2023-08-07T03:32:45;97001.00;;;12.70
18219;BMP180;9234;49.344;11.120;2023-08-07T03:35:14;97003.00;;;12.70
18219;BMP180;9234;49.344;11.120;2023-08-07T03:37:44;97005.00;;;12.70
18219;BMP180;9234;49.344;11.120;2023-08-07T03:40:13;97018.00;;;12.70
18219;BMP180;9234;49.344;11.120;2023-08-07T03:42:41;97011.00;;;12.70
18219;BMP180;9234;49.344;11.120;2023-08-07T03:45:11;97022.00;;;12.70
18219;BMP180;9234;49.344;11.120;2023-08-07T03:47:39;97005.00;;;12.70
18219;BMP180;9234;49.344;11.120;2023-08-07T03:50:08;97029.00;;;12.70
18219;BMP180;9234;49.344;11.120;2023-08-07T03:52:36;97022.00;;;12.60
18219;BMP180;9234;49.344;11.120;2023-08-07T03:55:07;97031.00;;;12.60
18219;BMP180;9234;49.344;11.120;2023-08-07T03:57:35;97035.00;;;12.60
18219;BMP180;9234;49.344;11.120;2023-08-07T04:00:06;97053.00;;;12.60
18219;BMP180;9234;49.344;11.120;2023-08-07T04:02:40;97062.00;;;12.60
18219;BMP180;9234;49.344;11.120;2023-08-07T04:05:12;97042.00;;;12.60
18219;BMP180;9234;49.344;11.120;2023-08-07T04:07:40;97038.00;;;12.60
18219;BMP180;9234;49.344;11.120;2023-08-07T04:10:10;97050.00;;;12.60
18219;BMP180;9234;49.344;11.120;2023-08-07T04:12:39;97047.00;;;12.60
18219;BMP180;9234;49.344;11.120;2023-08-07T04:15:08;97042.00;;;12.60
18219;BMP180;9234;49.344;11.120;2023-08-07T04:17:37;97051.00;;;12.60
18219;BMP180;9234;49.344;11.120;2023-08-07T04:20:07;97066.00;;;12.60
18219;BMP180;9234;49.344;11.120;2023-08-07T04:22:36;97055.00;;;12.60
18219;BMP180;9234;49.344;11.120;2023-08-07T04:25:06;97050.00;;;12.60
18219;BMP180;9234;49.344;11.120;2023-08-07T04:27:36;97062.00;;;12.60
18219;BMP180;9234;49.344;11.120;2023-08-07T04:30:06;97070.00;;;12.60
18219;BMP180;9234;49.344;11.120;2023-08-07T04:32:35;97066.00;;;12.60
18219;BMP180;9234;49.344;11.120;2023-08-07T04:35:04;97055.00;;;12.60
18219;BMP180;9234;49.344;11.120;2023-08-07T04:37:33;97068.00;;;12.60
18219;BMP180;9234;49.344;11.120;2023-08-07T04:40:01;97071.00;;;12.60
18219;BMP180;9234;49.344;11.120;2023-08-07T04:42:29;97078.00;;;12.60
18219;BMP180;9234;49.344;11.120;2023-08-07T04:44:59;97082.00;;;12.60
18219;BMP180;9234;49.344;11.120;2023-08-07T04:47:28;97091.00;;;12.60
18219;BMP180;9234;49.344;11.120;2023-08-07T04:49:57;97085.00;;;12.50
18219;BMP180;9234;49.344;11.120;2023-08-07T04:52:25;97079.00;;;12.50
18219;BMP180;9234;49.344;11.120;2023-08-07T04:54:54;97091.00;;;12.50
18219;BMP180;9234;49.344;11.120;2023-08-07T04:57:22;97085.00;;;12.50
18219;BMP180;9234;49.344;11.120;2023-08-07T04:59:51;97090.00;;;12.50
18219;BMP180;9234;49.344;11.120;2023-08-07T05:02:21;97097.00;;;12.50
18219;BMP180;9234;49.344;11.120;2023-08-07T05:04:50;97085.00;;;12.50
18219;BMP180;9234;49.344;11.120;2023-08-07T05:07:18;97093.00;;;12.60
18219;BMP180;9234;49.344;11.120;2023-08-07T05:09:47;97105.00;;;12.50
18219;BMP180;9234;49.344;11.120;2023-08-07T05:12:16;97097.00;;;12.50
18219;BMP180;9234;49.344;11.120;2023-08-07T05:14:45;97112.00;;;12.50
18219;BMP180;9234;49.344;11.120;2023-08-07T05:17:13;97101.00;;;12.50
18219;BMP180;9234;49.344;11.120;2023-08-07T05:19:42;97103.00;;;12.50
18219;BMP180;9234;49.344;11.120;2023-08-07T05:22:11;97110.00;;;12.50
18219;BMP180;9234;49.344;11.120;2023-08-07T05:24:39;97105.00;;;12.40
18219;BMP180;9234;49.344;11.120;2023-08-07T05:27:09;97120.00;;;12.50
18219;BMP180;9234;49.344;11.120;2023-08-07T05:29:37;97123.00;;;12.40
18219;BMP180;9234;49.344;11.120;2023-08-07T05:32:11;97111.00;;;12.40
18219;BMP180;9234;49.344;11.120;2023-08-07T05:34:42;97108.00;;;12.40
18219;BMP180;9234;49.344;11.120;2023-08-07T05:37:10;97115.00;;;12.40
18219;BMP180;9234;49.344;11.120;2023-08-07T05:39:38;97122.00;;;12.40
18219;BMP180;9234;49.344;11.120;2023-08-07T05:42:07;97125.00;;;12.40
18219;BMP180;9234;49.344;11.120;2023-08-07T05:44:37;97139.00;;;12.50
18219;BMP180;9234;49.344;11.120;2023-08-07T05:47:07;97131.00;;;12.50
18219;BMP180;9234;49.344;11.120;2023-08-07T05:49:35;97126.00;;;12.50
18219;BMP180;9234;49.344;11.120;2023-08-07T05:52:06;97143.00;;;12.50
18219;BMP180;9234;49.344;11.120;2023-08-07T05:54:35;97130.00;;;12.50
18219;BMP180;9234;49.344;11.120;2023-08-07T05:57:03;97129.00;;;12.50
18219;BMP180;9234;49.344;11.120;2023-08-07T05:59:32;97134.00;;;12.50
18219;BMP180;9234;49.344;11.120;2023-08-07T06:02:02;97135.00;;;12.60
18219;BMP180;9234;49.344;11.120;2023-08-07T06:04:31;97147.00;;;12.50
18219;BMP180;9234;49.344;11.120;2023-08-07T06:07:00;97127.00;;;12.60
18219;BMP180;9234;49.344;11.120;2023-08-07T06:09:30;97150.00;;;12.60
18219;BMP180;9234;49.344;11.120;2023-08-07T06:11:58;97146.00;;;12.60
18219;BMP180;9234;49.344;11.120;2023-08-07T06:14:27;97152.00;;;12.60
18219;BMP180;9234;49.344;11.120;2023-08-07T06:16:55;97140.00;;;12.60
18219;BMP180;9234;49.344;11.120;2023-08-07T06:19:25;97165.00;;;12.60
18219;BMP180;9234;49.344;11.120;2023-08-07T06:21:59;97147.00;;;12.60
18219;BMP180;9234;49.344;11.120;2023-08-07T06:24:29;97150.00;;;12.60
18219;BMP180;9234;49.344;11.120;2023-08-07T06:26:57;97154.00;;;12.70
18219;BMP180;9234;49.344;11.120;2023-08-07T06:29:25;97158.00;;;12.70
18219;BMP180;9234;49.344;11.120;2023-08-07T06:31:54;97151.00;;;12.70
18219;BMP180;9234;49.344;11.120;2023-08-07T06:34:22;97153.00;;;12.70
18219;BMP180;9234;49.344;11.120;2023-08-07T06:36:51;97142.00;;;12.70
18219;BMP180;9234;49.344;11.120;2023-08-07T06:39:19;97161.00;;;12.80
18219;BMP180;9234;49.344;11.120;2023-08-07T06:41:49;97156.00;;;12.80
18219;BMP180;9234;49.344;11.120;2023-08-07T06:44:20;97158.00;;;12.80
18219;BMP180;9234;49.344;11.120;2023-08-07T06:46:48;97164.00;;;12.80
18219;BMP180;9234;49.344;11.120;2023-08-07T06:49:17;97170.00;;;12.80
18219;BMP180;9234;49.344;11.120;2023-08-07T06:51:45;97177.00;;;12.80
18219;BMP180;9234;49.344;11.120;2023-08-07T06:54:13;97179.00;;;12.90
18219;BMP180;9234;49.344;11.120;2023-08-07T06:56:41;97187.00;;;12.90
18219;BMP180;9234;49.344;11.120;2023-08-07T06:59:12;97183.00;;;12.90
18219;BMP180;9234;49.344;11.120;2023-08-07T07:01:40;97179.00;;;12.90
18219;BMP180;9234;49.344;11.120;2023-08-07T07:04:09;97179.00;;;12.90
18219;BMP180;9234;49.344;11.120;2023-08-07T07:06:37;97188.00;;;12.90
18219;BMP180;9234;49.344;11.120;2023-08-07T07:09:06;97193.00;;;12.90
18219;BMP180;9234;49.344;11.120;2023-08-07T07:11:34;97184.00;;;12.90
18219;BMP180;9234;49.344;11.120;2023-08-07T07:14:02;97192.00;;;13.00
18219;BMP180;9234;49.344;11.120;2023-08-07T07:16:32;97187.00;;;13.00
18219;BMP180;9234;49.344;11.120;2023-08-07T07:19:00;97193.00;;;13.00
18219;BMP180;9234;49.344;11.120;2023-08-07T07:21:29;97193.00;;;13.10
18219;BMP180;9234;49.344;11.120;2023-08-07T07:23:57;97202.00;;;13.10
18219;BMP180;9234;49.344;11.120;2023-08-07T07:26:25;97208.00;;;13.10
18219;BMP180;9234;49.344;11.120;2023-08-07T07:28:53;97207.00;;;13.20
18219;BMP180;9234;49.344;11.120;2023-08-07T07:31:22;97211.00;;;13.20
18219;BMP180;9234;49.344;11.120;2023-08-07T07:33:52;97199.00;;;13.10
18219;BMP180;9234;49.344;11.120;2023-08-07T07:36:20;97205.00;;;13.20
18219;BMP180;9234;49.344;11.120;2023-08-07T07:38:48;97213.00;;;13.20
18219;BMP180;9234;49.344;11.120;2023-08-07T07:41:17;97224.00;;;13.20
18219;BMP180;9234;49.344;11.120;2023-08-07T07:43:46;97225.00;;;13.10
18219;BMP180;9234;49.344;11.120;2023-08-07T07:46:15;97229.00;;;13.20
18219;BMP180;9234;49.344;11.120;2023-08-07T07:48:43;97226.00;;;13.20
18219;BMP180;9234;49.344;11.120;2023-08-07T07:51:13;97234.00;;;13.20
18219;BMP180;9234;49.344;11.120;2023-08-07T07:53:41;97239.00;;;13.20
18219;BMP180;9234;49.344;11.120;2023-08-07T07:56:09;97239.00;;;13.20
18219;BMP180;9234;49.344;11.120;2023-08-07T07:58:38;97240.00;;;13.30
18219;BMP180;9234;49.344;11.120;2023-08-07T08:01:08;97245.00;;;13.30
18219;BMP180;9234;49.344;11.120;2023-08-07T08:03:36;97258.00;;;13.30
18219;BMP180;9234;49.344;11.120;2023-08-07T08:06:04;97258.00;;;13.30
18219;BMP180;9234;49.344;11.120;2023-08-07T08:08:34;97259.00;;;13.40
18219;BMP180;9234;49.344;11.120;2023-08-07T08:11:02;97269.00;;;13.40
18219;BMP180;9234;49.344;11.120;2023-08-07T08:13:31;97275.00;;;13.50
18219;BMP180;9234;49.344;11.120;2023-08-07T08:15:59;97267.00;;;13.50
18219;BMP180;9234;49.344;11.120;2023-08-07T08:18:27;97273.00;;;13.50
18219;BMP180;9234;49.344;11.120;2023-08-07T08:20:56;97275.00;;;13.50
18219;BMP180;9234;49.344;11.120;2023-08-07T08:23:24;97281.00;;;13.60
18219;BMP180;9234;49.344;11.120;2023-08-07T08:25:54;97271.00;;;13.60
18219;BMP180;9234;49.344;11.120;2023-08-07T08:28:22;97281.00;;;13.60
18219;BMP180;9234;49.344;11.120;2023-08-07T08:30:53;97299.00;;;13.60
18219;BMP180;9234;49.344;11.120;2023-08-07T08:33:22;97292.00;;;13.60
18219;BMP180;9234;49.344;11.120;2023-08-07T08:35:50;97295.00;;;13.60
18219;BMP180;9234;49.344;11.120;2023-08-07T08:38:18;97290.00;;;13.60
18219;BMP180;9234;49.344;11.120;2023-08-07T08:40:51;97294.00;;;13.60
18219;BMP180;9234;49.344;11.120;2023-08-07T08:43:22;97306.00;;;13.60
18219;BMP180;9234;49.344;11.120;2023-08-07T08:45:52;97312.00;;;13.70
18219;BMP180;9234;49.344;11.120;2023-08-07T08:48:21;97306.00;;;13.70
18219;BMP180;9234;49.344;11.120;2023-08-07T08:50:52;97321.00;;;13.70
18219;BMP180;9234;49.344;11.120;2023-08-07T08:53:21;97312.00;;;13.70
18219;BMP180;9234;49.344;11.120;2023-08-07T08:55:50;97312.00;;;13.70
18219;BMP180;9234;49.344;11.120;2023-08-07T08:58:23;97320.00;;;13.70
18219;BMP180;9234;49.344;11.120;2023-08-07T09:00:51;97315.00;;;13.70
18219;BMP180;9234;49.344;11.120;2023-08-07T09:03:21;97320.00;;;13.70
18219;BMP180;9234;49.344;11.120;2023-08-07T09:05:52;97337.00;;;13.80
18219;BMP180;9234;49.344;11.120;2023-08-07T09:08:25;97335.00;;;13.80
18219;BMP180;9234;49.344;11.120;2023-08-07T09:10:56;97326.00;;;13.90
18219;BMP180;9234;49.344;11.120;2023-08-07T09:13:28;97331.00;;;13.90
18219;BMP180;9234;49.344;11.120;2023-08-07T09:16:00;97320.00;;;14.00
18219;BMP180;9234;49.344;11.120;2023-08-07T09:18:28;97329.00;;;14.00
18219;BMP180;9234;49.344;11.120;2023-08-07T09:20:57;97337.00;;;14.00
18219;BMP180;9234;49.344;11.120;2023-08-07T09:23:25;97353.00;;;14.00
18219;BMP180;9234;49.344;11.120;2023-08-07T09:26:00;97339.00;;;14.00
18219;BMP180;9234;49.344;11.120;2023-08-07T09:28:31;97342.00;;;14.00
18219;BMP180;9234;49.344;11.120;2023-08-07T09:31:00;97347.00;;;13.90
18219;BMP180;9234;49.344;11.120;2023-08-07T09:33:30;97337.00;;;13.90
18219;BMP180;9234;49.344;11.120;2023-08-07T09:36:01;97334.00;;;13.90
18219;BMP180;9234;49.344;11.120;2023-08-07T09:38:31;97342.00;;;14.00
18219;BMP180;9234;49.344;11.120;2023-08-07T09:41:00;97346.00;;;14.00
18219;BMP180;9234;49.344;11.120;2023-08-07T09:43:34;97343.00;;;14.00
18219;BMP180;9234;49.344;11.120;2023-08-07T09:46:03;97365.00;;;14.00
18219;BMP180;9234;49.344;11.120;2023-08-07T09:48:31;97370.00;;;14.10
18219;BMP180;9234;49.344;11.120;2023-08-07T09:51:01;97370.00;;;14.10
18219;BMP180;9234;49.344;11.120;2023-08-07T09:53:31;97374.00;;;14.10
18219;BMP180;9234;49.344;11.120;2023-08-07T09:56:00;97364.00;;;14.10
18219;BMP180;9234;49.344;11.120;2023-08-07T09:58:28;97368.00;;;14.10
18219;BMP180;9234;49.344;11.120;2023-08-07T10:01:03;97371.00;;;14.20
18219;BMP180;9234;49.344;11.120;2023-08-07T10:03:32;97374.00;;;14.20
18219;BMP180;9234;49.344;11.120;2023-08-07T10:06:01;97372.00;;;14.20
18219;BMP180;9234;49.344;11.120;2023-08-07T10:08:32;97374.00;;;14.20
18219;BMP180;9234;49.344;11.120;2023-08-07T10:11:02;97382.00;;;14.30
18219;BMP180;9234;49.344;11.120;2023-08-07T10:13:31;97376.00;;;14.30
18219;BMP180;9234;49.344;11.120;2023-08-07T10:16:07;97383.00;;;14.40
18219;BMP180;9234;49.344;11.120;2023-08-07T10:18:36;97377.00;;;14.40
18219;BMP180;9234;49.344;11.120;2023-08-07T10:21:06;97390.00;;;14.50
18219;BMP180;9234;49.344;11.120;2023-08-07T10:23:36;97388.00;;;14.60
18219;BMP180;9234;49.344;11.120;2023-08-07T10:26:08;97396.00;;;14.60
18219;BMP180;9234;49.344;11.120;2023-08-07T10:28:40;97389.00;;;14.60
18219;BMP180;9234;49.344;11.120;2023-08-07T10:31:12;97396.00;;;14.70
18219;BMP180;9234;49.344;11.120;2023-08-07T10:33:42;97392.00;;;14.70
18219;BMP180;9234;49.344;11.120;2023-08-07T10:36:11;97393.00;;;14.60
18219;BMP180;9234;49.344;11.120;2023-08-07T10:38:41;97401.00;;;14.60
18219;BMP180;9234;49.344;11.120;2023-08-07T10:41:13;97409.00;;;14.60
18219;BMP180;9234;49.344;11.120;2023-08-07T10:43:46;97415.00;;;14.50
18219;BMP180;9234;49.344;11.120;2023-08-07T10:46:19;97416.00;;;14.50
18219;BMP180;9234;49.344;11.120;2023-08-07T10:48:55;97415.00;;;14.50
18219;BMP180;9234;49.344;11.120;2023-08-07T10:51:29;97411.00;;;14.50
18219;BMP180;9234;49.344;11.120;2023-08-07T10:54:01;97408.00;;;14.50
18219;BMP180;9234;49.344;11.120;2023-08-07T10:56:32;97401.00;;;14.60
18219;BMP180;9234;49.344;11.120;2023-08-07T10:59:08;97422.00;;;14.70
18219;BMP180;9234;49.344;11.120;2023-08-07T11:01:42;97421.00;;;14.70
18219;BMP180;9234;49.344;11.120;2023-08-07T11:04:13;97423.00;;;14.90
18219;BMP180;9234;49.344;11.120;2023-08-07T11:06:46;97417.00;;;15.00
18219;BMP180;9234;49.344;11.120;2023-08-07T11:09:14;97432.00;;;15.10
18219;BMP180;9234;49.344;11.120;2023-08-07T11:11:45;97412.00;;;15.10
18219;BMP180;9234;49.344;11.120;2023-08-07T11:14:15;97413.00;;;15.20
18219;BMP180;9234;49.344;11.120;2023-08-07T11:16:47;97433.00;;;15.30
18219;BMP180;9234;49.344;11.120;2023-08-07T11:19:17;97417.00;;;15.40
18219;BMP180;9234;49.344;11.120;2023-08-07T11:21:47;97414.00;;;15.40
18219;BMP180;9234;49.344;11.120;2023-08-07T11:24:16;97427.00;;;15.40
18219;BMP180;9234;49.344;11.120;2023-08-07T11:26:47;97427.00;;;15.40
18219;BMP180;9234;49.344;11.120;2023-08-07T11:29:19;97423.00;;;15.50
18219;BMP180;9234;49.344;11.120;2023-08-07T11:31:49;97419.00;;;15.50
18219;BMP180;9234;49.344;11.120;2023-08-07T11:34:18;97420.00;;;15.60
18219;BMP180;9234;49.344;11.120;2023-08-07T11:36:46;97417.00;;;15.60
18219;BMP180;9234;49.344;11.120;2023-08-07T11:39:15;97420.00;;;15.70
18219;BMP180;9234;49.344;11.120;2023-08-07T11:41:43;97430.00;;;15.70
18219;BMP180;9234;49.344;11.120;2023-08-07T11:44:12;97433.00;;;15.60
18219;BMP180;9234;49.344;11.120;2023-08-07T11:46:41;97427.00;;;15.50
18219;BMP180;9234;49.344;11.120;2023-08-07T11:49:12;97432.00;;;15.50
18219;BMP180;9234;49.344;11.120;2023-08-07T11:51:41;97419.00;;;15.40
18219;BMP180;9234;49.344;11.120;2023-08-07T11:54:16;97432.00;;;15.50
18219;BMP180;9234;49.344;11.120;2023-08-07T11:56:45;97441.00;;;15.50
18219;BMP180;9234;49.344;11.120;2023-08-07T11:59:17;97423.00;;;15.50
18219;BMP180;9234;49.344;11.120;2023-08-07T12:01:46;97434.00;;;15.50
18219;BMP180;9234;49.344;11.120;2023-08-07T12:04:17;97456.00;;;15.50
18219;BMP180;9234;49.344;11.120;2023-08-07T12:06:54;97459.00;;;15.50
18219;BMP180;9234;49.344;11.120;2023-08-07T12:09:26;97453.00;;;15.50
18219;BMP180;9234;49.344;11.120;2023-08-07T12:11:56;97454.00;;;15.50
18219;BMP180;9234;49.344;11.120;2023-08-07T12:14:29;97461.00;;;15.50
18219;BMP180;9234;49.344;11.120;2023-08-07T12:16:57;97466.00;;;15.40
18219;BMP180;9234;49.344;11.120;2023-08-07T12:19:37;97468.00;;;15.40
18219;BMP180;9234;49.344;11.120;2023-08-07T12:22:10;97466.00;;;15.40
18219;BMP180;9234;49.344;11.120;2023-08-07T12:24:40;97468.00;;;15.40
18219;BMP180;9234;49.344;11.120;2023-08-07T12:27:09;97456.00;;;15.60
18219;BMP180;9234;49.344;11.120;2023-08-07T12:29:37;97456.00;;;15.70
18219;BMP180;9234;49.344;11.120;2023-08-07T12:32:07;97454.00;;;16.00
18219;BMP180;9234;49.344;11.120;2023-08-07T12:34:38;97462.00;;;16.10
18219;BMP180;9234;49.344;11.120;2023-08-07T12:37:28;97455.00;;;16.30
18219;BMP180;9234;49.344;11.120;2023-08-07T12:39:56;97465.00;;;16.30
18219;BMP180;9234;49.344;11.120;2023-08-07T12:42:45;97470.00;;;16.30
18219;BMP180;9234;49.344;11.120;2023-08-07T12:45:13;97483.00;;;16.30
18219;BMP180;9234;49.344;11.120;2023-08-07T12:47:43;97473.00;;;16.20
18219;BMP180;9234;49.344;11.120;2023-08-07T12:50:13;97474.00;;;16.10
18219;BMP180;9234;49.344;11.120;2023-08-07T12:52:42;97478.00;;;16.10
18219;BMP180;9234;49.344;11.120;2023-08-07T12:55:11;97488.00;;;16.00
18219;BMP180;9234;49.344;11.120;2023-08-07T12:57:41;97479.00;;;15.90
18219;BMP180;9234;49.344;11.120;2023-08-07T13:00:12;97482.00;;;15.80
18219;BMP180;9234;49.344;11.120;2023-08-07T13:02:43;97485.00;;;15.80
18219;BMP180;9234;49.344;11.120;2023-08-07T13:05:14;97480.00;;;15.70
18219;BMP180;9234;49.344;11.120;2023-08-07T13:07:44;97474.00;;;15.60
18219;BMP180;9234;49.344;11.120;2023-08-07T13:10:15;97479.00;;;15.50
18219;BMP180;9234;49.344;11.120;2023-08-07T13:12:45;97489.00;;;15.40
18219;BMP180;9234;49.344;11.120;2023-08-07T13:15:16;97485.00;;;15.30
18219;BMP180;9234;49.344;11.120;2023-08-07T13:17:45;97494.00;;;15.20
18219;BMP180;9234;49.344;11.120;2023-08-07T13:20:14;97495.00;;;15.10
18219;BMP180;9234;49.344;11.120;2023-08-07T13:22:44;97495.00;;;15.10
18219;BMP180;9234;49.344;11.120;2023-08-07T13:25:13;97488.00;;;15.10
18219;BMP180;9234;49.344;11.120;2023-08-07T13:27:42;97501.00;;;15.10
18219;BMP180;9234;49.344;11.120;2023-08-07T13:30:11;97496.00;;;15.00
18219;BMP180;9234;49.344;11.120;2023-08-07T13:32:39;97499.00;;;14.90
18219;BMP180;9234;49.344;11.120;2023-08-07T13:35:08;97505.00;;;14.80
18219;BMP180;9234;49.344;11.120;2023-08-07T13:37:38;97515.00;;;14.80
18219;BMP180;9234;49.344;11.120;2023-08-07T13:40:08;97513.00;;;14.70
18219;BMP180;9234;49.344;11.120;2023-08-07T13:42:38;97505.00;;;14.70
18219;BMP180;9234;49.344;11.120;2023-08-07T13:45:08;97499.00;;;14.70
18219;BMP180;9234;49.344;11.120;2023-08-07T13:47:36;97511.00;;;14.70
18219;BMP180;9234;49.344;11.120;2023-08-07T13:50:07;97514.00;;;14.70
18219;BMP180;9234;49.344;11.120;2023-08-07T13:52:41;97529.00;;;14.70
18219;BMP180;9234;49.344;11.120;2023-08-07T13:55:09;97528.00;;;14.80
18219;BMP180;9234;49.344;11.120;2023-08-07T13:57:37;97516.00;;;14.80
18219;BMP180;9234;49.344;11.120;2023-08-07T14:00:07;97526.00;;;14.90
18219;BMP180;9234;49.344;11.120;2023-08-07T14:02:36;97531.00;;;14.90
18219;BMP180;9234;49.344;11.120;2023-08-07T14:05:05;97538.00;;;14.90
18219;BMP180;9234;49.344;11.120;2023-08-07T14:07:34;97538.00;;;14.90
18219;BMP180;9234;49.344;11.120;2023-08-07T14:10:05;97541.00;;;14.90
18219;BMP180;9234;49.344;11.120;2023-08-07T14:12:33;97537.00;;;15.00
18219;BMP180;9234;49.344;11.120;2023-08-07T14:15:02;97558.00;;;15.00
18219;BMP180;9234;49.344;11.120;2023-08-07T14:17:30;97540.00;;;15.00
18219;BMP180;9234;49.344;11.120;2023-08-07T14:19:58;97550.00;;;15.00
18219;BMP180;9234;49.344;11.120;2023-08-07T14:22:26;97548.00;;;15.00